Time;durP1;ratioP1;P1;durP2;ratioP2;P2;SDS_P1;SDS_P2;PMS_P1;PMS_P2;Temp;Humidity;BMP_temperature;BMP_pressure;BME280_temperature;BME280_humidity;BME280_pressure;Samples;Min_cycle;Max_cycle;Signal;HPM_P1;HPM_P2
2022/07/02 00:01:18;;;;;;;15.00;12.55;;;14.60;99.90;;;;;;5051683;28;20071;-47
2022/07/02 00:03:50;;;;;;;21.13;13.70;;;14.60;99.90;;;;;;5051253;28;20037;-47
2022/07/02 00:06:19;;;;;;;14.27;12.73;;;14.60;99.90;;;;;;5050612;28;20033;-47
2022/07/02 00:08:45;;;;;;;16.50;13.88;;;14.60;99.90;;;;;;5051074;28;20091;-47
2022/07/02 00:11:14;;;;;;;19.20;12.65;;;14.60;99.90;;;;;;5050937;28;20021;-47
2022/07/02 00:13:41;;;;;;;15.07;13.32;;;14.60;99.90;;;;;;5051027;28;20522;-47
2022/07/02 00:16:09;;;;;;;19.55;14.27;;;14.60;99.90;;;;;;5041659;28;20032;-46
2022/07/02 00:18:36;;;;;;;22.42;13.90;;;14.60;99.90;;;;;;5042451;28;20486;-47
2022/07/02 00:21:02;;;;;;;15.93;14.23;;;14.60;99.90;;;;;;5051189;28;20025;-47
2022/07/02 00:23:28;;;;;;;23.15;14.35;;;14.60;99.90;;;;;;5046420;28;20721;-47
2022/07/02 00:25:59;;;;;;;17.45;14.20;;;14.50;99.90;;;;;;5042032;28;20318;-47
2022/07/02 00:28:26;;;;;;;18.30;14.98;;;14.50;99.90;;;;;;5050776;28;20020;-47
2022/07/02 00:30:52;;;;;;;18.30;13.68;;;14.40;99.90;;;;;;5050610;28;20507;-47
2022/07/02 00:33:18;;;;;;;21.55;13.38;;;14.40;99.90;;;;;;5049171;28;20478;-49
2022/07/02 00:35:45;;;;;;;17.35;12.93;;;14.40;99.90;;;;;;5049970;28;20028;-48
2022/07/02 00:38:11;;;;;;;18.75;13.15;;;14.40;99.90;;;;;;5050257;28;20023;-48
2022/07/02 00:40:37;;;;;;;17.70;12.93;;;14.40;99.90;;;;;;5041761;28;20021;-47
2022/07/02 00:43:03;;;;;;;17.42;12.73;;;14.40;99.90;;;;;;5042205;28;20032;-49
2022/07/02 00:45:29;;;;;;;13.05;11.65;;;14.50;99.90;;;;;;5049799;28;20033;-48
2022/07/02 00:47:55;;;;;;;16.40;12.80;;;14.50;99.90;;;;;;5050495;28;20119;-45
2022/07/02 00:50:22;;;;;;;19.00;13.07;;;14.50;99.90;;;;;;5050265;28;20430;-47
2022/07/02 00:52:48;;;;;;;15.55;11.90;;;14.40;99.90;;;;;;5050127;28;20502;-48
2022/07/02 00:55:13;;;;;;;14.07;11.07;;;14.40;99.90;;;;;;5049465;28;20025;-47
2022/07/02 00:57:39;;;;;;;18.38;12.23;;;14.30;99.90;;;;;;5049067;28;20017;-47
2022/07/02 01:00:07;;;;;;;18.30;11.38;;;14.40;99.90;;;;;;5050050;28;20032;-47
2022/07/02 01:02:35;;;;;;;15.00;11.95;;;14.40;99.90;;;;;;5050441;28;20493;-48
2022/07/02 01:05:01;;;;;;;13.23;11.18;;;14.30;99.90;;;;;;5049340;28;20340;-47
2022/07/02 01:07:28;;;;;;;13.88;11.85;;;14.30;99.90;;;;;;5049932;28;20063;-47
2022/07/02 01:12:44;;;;;;;17.83;12.05;;;14.30;99.90;;;;;;5041542;28;20055;-47
2022/07/02 01:15:10;;;;;;;16.27;11.40;;;14.20;99.90;;;;;;5049360;28;20028;-47
2022/07/02 01:17:35;;;;;;;17.73;11.75;;;14.20;99.90;;;;;;5049913;28;20025;-47
2022/07/02 01:20:03;;;;;;;19.30;12.88;;;14.20;99.90;;;;;;5049959;28;20100;-48
2022/07/02 01:22:46;;;;;;;15.43;10.95;;;14.20;99.90;;;;;;5049740;28;20040;-47
2022/07/02 01:25:12;;;;;;;13.27;10.98;;;14.20;99.90;;;;;;5048960;28;20131;-48
2022/07/02 01:27:37;;;;;;;14.43;11.15;;;14.20;99.90;;;;;;5049610;28;20108;-47
2022/07/02 01:30:04;;;;;;;16.98;12.15;;;14.20;99.90;;;;;;5046111;28;20017;-47
2022/07/02 01:32:29;;;;;;;13.68;11.32;;;14.20;99.90;;;;;;5040967;28;20021;-47
2022/07/02 01:35:04;;;;;;;13.27;10.98;;;14.10;99.90;;;;;;5048784;28;20021;-47
2022/07/02 01:37:30;;;;;;;18.05;10.50;;;14.10;99.90;;;;;;5048169;28;20581;-47
2022/07/02 01:39:56;;;;;;;11.85;10.20;;;14.10;99.90;;;;;;5049736;28;20032;-47
2022/07/02 01:42:21;;;;;;;15.52;11.02;;;14.10;99.90;;;;;;5049447;28;20467;-47
2022/07/02 01:44:47;;;;;;;12.90;10.50;;;14.10;99.90;;;;;;5048729;28;20033;-46
2022/07/02 01:47:13;;;;;;;11.93;10.07;;;14.10;99.90;;;;;;5049515;28;20033;-47
2022/07/02 01:49:40;;;;;;;11.75;8.77;;;14.10;99.90;;;;;;5049247;28;20448;-48
2022/07/02 01:52:07;;;;;;;15.50;9.38;;;14.10;99.90;;;;;;5048710;28;20102;-48
2022/07/02 01:54:33;;;;;;;13.25;9.70;;;14.10;99.90;;;;;;5048108;28;20124;-47
2022/07/02 01:57:00;;;;;;;16.42;9.55;;;14.00;99.90;;;;;;5049413;28;20079;-47
2022/07/02 01:59:25;;;;;;;13.18;9.93;;;14.00;99.90;;;;;;5046878;28;20469;-47
2022/07/02 02:01:51;;;;;;;16.85;10.68;;;14.00;99.90;;;;;;5038969;28;20043;-46
2022/07/02 02:04:17;;;;;;;13.95;10.18;;;14.00;99.90;;;;;;5048302;28;20127;-47
2022/07/02 02:06:42;;;;;;;11.30;10.00;;;14.00;99.90;;;;;;5047760;28;20542;-48
2022/07/02 02:09:08;;;;;;;11.55;9.25;;;14.00;99.90;;;;;;5047346;28;20112;-47
2022/07/02 02:11:34;;;;;;;11.98;9.30;;;14.00;99.90;;;;;;5048870;28;20067;-48
2022/07/02 02:13:59;;;;;;;13.50;9.02;;;14.00;99.90;;;;;;5047387;28;20115;-47
2022/07/02 02:16:30;;;;;;;13.88;10.05;;;13.90;99.90;;;;;;5048901;28;20094;-47
2022/07/02 02:18:57;;;;;;;9.68;8.65;;;13.90;99.90;;;;;;5049024;28;20079;-47
2022/07/02 02:21:24;;;;;;;12.75;9.25;;;13.90;99.90;;;;;;5048761;28;20053;-47
2022/07/02 02:23:50;;;;;;;12.38;9.80;;;13.90;99.90;;;;;;5048700;28;20021;-47
2022/07/02 02:26:15;;;;;;;12.75;9.57;;;13.90;99.90;;;;;;5048296;28;20385;-46
2022/07/02 02:28:41;;;;;;;10.18;9.07;;;13.90;99.90;;;;;;5048718;28;20394;-47
2022/07/02 02:31:07;;;;;;;10.10;8.95;;;13.90;99.90;;;;;;5040830;28;20037;-47
2022/07/02 02:33:32;;;;;;;10.63;9.52;;;13.90;99.90;;;;;;5039274;28;20025;-47
2022/07/02 02:35:57;;;;;;;14.45;9.13;;;13.80;99.90;;;;;;5035916;28;20053;-46
2022/07/02 02:38:24;;;;;;;11.93;9.45;;;13.90;99.90;;;;;;5028226;28;20079;-47
2022/07/02 02:40:50;;;;;;;10.52;8.10;;;13.80;99.90;;;;;;5028799;28;20044;-47
2022/07/02 02:43:15;;;;;;;8.88;7.50;;;13.80;99.90;;;;;;5028557;28;20033;-48
2022/07/02 02:45:41;;;;;;;10.02;7.75;;;13.80;99.90;;;;;;5027879;28;20038;-49
2022/07/02 02:48:06;;;;;;;11.57;8.23;;;13.80;99.90;;;;;;5028645;28;20030;-47
2022/07/02 02:50:32;;;;;;;11.80;8.43;;;13.70;99.90;;;;;;5018917;28;20310;-46
2022/07/02 02:52:57;;;;;;;8.15;7.35;;;13.70;99.90;;;;;;5016532;28;20064;-47
2022/07/02 02:55:23;;;;;;;13.80;8.95;;;13.80;99.90;;;;;;5014532;28;20034;-46
2022/07/02 02:57:48;;;;;;;17.60;9.52;;;13.70;99.90;;;;;;5031666;28;20199;-47
2022/07/02 03:00:14;;;;;;;10.57;8.13;;;13.70;99.90;;;;;;5020127;28;20026;-46
2022/07/02 03:02:39;;;;;;;11.38;7.85;;;13.70;99.90;;;;;;5017537;28;20291;-46
2022/07/02 03:05:05;;;;;;;10.50;7.57;;;13.70;99.90;;;;;;5021229;28;20017;-47
2022/07/02 03:07:31;;;;;;;14.15;8.30;;;13.60;99.90;;;;;;5024229;28;20025;-48
2022/07/02 03:09:56;;;;;;;20.35;12.98;;;13.60;99.90;;;;;;5035480;28;20542;-46
2022/07/02 03:12:22;;;;;;;18.52;11.55;;;13.50;99.90;;;;;;5043486;28;20025;-48
2022/07/02 03:14:47;;;;;;;15.50;9.65;;;13.50;99.90;;;;;;5044186;28;20115;-47
2022/07/02 03:17:13;;;;;;;13.40;9.63;;;13.50;99.90;;;;;;5043931;28;20021;-48
2022/07/02 03:19:38;;;;;;;11.38;8.57;;;13.50;99.90;;;;;;5052244;28;20036;-47
2022/07/02 03:22:04;;;;;;;9.30;7.90;;;13.50;99.90;;;;;;5052513;28;20519;-47
2022/07/02 03:24:29;;;;;;;10.52;7.80;;;13.50;99.90;;;;;;5039368;28;20029;-48
2022/07/02 03:26:55;;;;;;;16.63;8.02;;;13.50;99.90;;;;;;5033910;28;20502;-47
2022/07/02 03:29:20;;;;;;;9.40;7.55;;;13.40;99.90;;;;;;5021435;28;20017;-48
2022/07/02 03:31:46;;;;;;;11.52;8.10;;;13.40;99.90;;;;;;5022722;28;20192;-47
2022/07/02 03:34:11;;;;;;;11.93;8.75;;;13.40;99.90;;;;;;5025625;28;20108;-47
2022/07/02 03:36:37;;;;;;;10.40;8.65;;;13.40;99.90;;;;;;5025549;28;20034;-48
2022/07/02 03:39:02;;;;;;;11.00;8.95;;;13.30;99.90;;;;;;5022386;28;20041;-47
2022/07/02 03:41:28;;;;;;;9.73;8.68;;;13.30;99.90;;;;;;5021857;28;20018;-47
2022/07/02 03:43:53;;;;;;;13.10;8.52;;;13.30;99.90;;;;;;5022213;28;20048;-46
2022/07/02 03:46:19;;;;;;;12.45;9.25;;;13.40;99.90;;;;;;5028154;28;20033;-47
2022/07/02 03:48:44;;;;;;;17.05;9.20;;;13.30;99.90;;;;;;5031675;28;20398;-47
2022/07/02 03:51:10;;;;;;;13.18;9.10;;;13.30;99.90;;;;;;5031622;28;20501;-47
2022/07/02 03:53:36;;;;;;;10.20;8.57;;;13.30;99.90;;;;;;5032313;28;20227;-47
2022/07/02 03:56:02;;;;;;;12.00;8.68;;;13.30;99.90;;;;;;5042340;28;20017;-48
2022/07/02 03:58:29;;;;;;;9.80;8.20;;;13.30;99.90;;;;;;5051229;28;20028;-47
2022/07/02 04:00:54;;;;;;;13.30;7.85;;;13.30;99.90;;;;;;5050935;28;20545;-47
2022/07/02 04:03:20;;;;;;;12.75;8.45;;;13.40;99.90;;;;;;5051272;28;20104;-47
2022/07/02 04:05:45;;;;;;;12.80;8.27;;;13.40;99.90;;;;;;5050621;28;20031;-47
2022/07/02 04:08:11;;;;;;;12.90;8.43;;;13.40;99.90;;;;;;5049871;28;20048;-50
2022/07/02 04:10:36;;;;;;;10.93;8.13;;;13.50;99.90;;;;;;5051016;28;20033;-48
2022/07/02 04:13:03;;;;;;;10.38;7.55;;;13.50;99.90;;;;;;5050872;28;20504;-50
2022/07/02 04:15:28;;;;;;;8.65;7.45;;;13.50;99.90;;;;;;5049080;28;20017;-49
2022/07/02 04:17:55;;;;;;;10.52;6.55;;;13.60;99.90;;;;;;5050973;28;20483;-47
2022/07/02 04:20:20;;;;;;;9.40;6.72;;;13.60;99.90;;;;;;5050976;28;20205;-46
2022/07/02 04:22:46;;;;;;;10.23;6.85;;;13.70;99.90;;;;;;5050932;28;20033;-51
2022/07/02 04:25:11;;;;;;;7.93;6.32;;;13.70;99.90;;;;;;5042134;28;20411;-47
2022/07/02 04:27:37;;;;;;;8.00;6.82;;;13.70;99.90;;;;;;5013975;28;20060;-47
2022/07/02 04:30:02;;;;;;;9.77;6.20;;;13.80;99.90;;;;;;5011376;28;20022;-48
2022/07/02 04:32:28;;;;;;;8.80;6.55;;;13.80;99.90;;;;;;5011375;28;20182;-48
2022/07/02 04:34:53;;;;;;;6.97;6.20;;;13.90;99.90;;;;;;5010673;28;20033;-50
2022/07/02 04:37:19;;;;;;;7.50;6.38;;;13.90;99.90;;;;;;5010979;28;20033;-48
2022/07/02 04:39:44;;;;;;;7.55;6.15;;;14.00;99.90;;;;;;5010787;28;20039;-48
2022/07/02 04:42:10;;;;;;;8.38;6.35;;;14.00;99.90;;;;;;5010923;28;20373;-46
2022/07/02 04:44:35;;;;;;;6.38;5.43;;;14.00;99.90;;;;;;5035008;28;20049;-46
2022/07/02 04:47:01;;;;;;;10.55;6.25;;;14.10;99.90;;;;;;5050378;28;20267;-47
2022/07/02 04:49:26;;;;;;;7.40;5.75;;;14.10;99.90;;;;;;5050372;28;20060;-47
2022/07/02 04:51:52;;;;;;;7.15;5.65;;;14.20;99.90;;;;;;5050378;28;20032;-46
2022/07/02 04:54:17;;;;;;;7.07;4.97;;;14.30;99.90;;;;;;5041330;28;20025;-45
2022/07/02 04:56:43;;;;;;;7.53;4.82;;;14.30;99.90;;;;;;5017370;28;20083;-45
2022/07/02 04:59:08;;;;;;;12.18;5.93;;;14.30;99.90;;;;;;5010718;28;20344;-46
2022/07/02 05:01:34;;;;;;;12.25;5.93;;;14.40;99.90;;;;;;5010492;28;20022;-48
2022/07/02 05:03:59;;;;;;;21.77;6.20;;;14.50;99.90;;;;;;5010012;28;20026;-47
2022/07/02 05:06:25;;;;;;;9.93;5.53;;;14.60;99.90;;;;;;5018366;28;20033;-46
2022/07/02 05:08:52;;;;;;;7.47;5.15;;;14.70;99.90;;;;;;5018912;28;20149;-49
2022/07/02 05:11:19;;;;;;;9.52;5.53;;;14.70;99.90;;;;;;5021269;28;20036;-46
2022/07/02 05:13:48;;;;;;;9.15;5.05;;;14.80;99.90;;;;;;5020981;28;20057;-47
2022/07/02 05:16:15;;;;;;;9.13;4.75;;;14.90;99.90;;;;;;5017346;28;20018;-46
2022/07/02 05:18:41;;;;;;;15.38;5.28;;;15.00;99.90;;;;;;5024146;28;20072;-47
2022/07/02 05:21:06;;;;;;;6.47;4.30;;;15.10;99.90;;;;;;5020555;28;20056;-46
2022/07/02 05:23:32;;;;;;;5.10;4.20;;;15.10;99.90;;;;;;5019607;28;20033;-48
2022/07/02 05:25:57;;;;;;;11.10;4.95;;;15.20;99.90;;;;;;5017238;28;20042;-47
2022/07/02 05:28:23;;;;;;;7.45;4.32;;;15.30;99.90;;;;;;5021308;28;20033;-49
2022/07/02 05:30:49;;;;;;;7.78;4.47;;;15.40;99.90;;;;;;5031397;28;20065;-47
2022/07/02 05:33:15;;;;;;;9.48;3.97;;;15.50;99.90;;;;;;5031242;28;20026;-47
2022/07/02 05:35:40;;;;;;;4.93;4.05;;;15.50;99.90;;;;;;5027907;28;20101;-49
2022/07/02 05:38:06;;;;;;;12.27;4.13;;;15.50;99.90;;;;;;5017471;28;20033;-50
2022/07/02 05:40:31;;;;;;;9.20;4.55;;;15.60;99.90;;;;;;5021537;28;20480;-46
2022/07/02 05:42:57;;;;;;;8.10;4.35;;;15.60;99.90;;;;;;5019957;28;20053;-46
2022/07/02 05:45:22;;;;;;;7.28;4.10;;;15.80;99.90;;;;;;5019899;28;20136;-46
2022/07/02 05:47:48;;;;;;;12.00;4.57;;;15.80;99.90;;;;;;5024138;28;20033;-47
2022/07/02 05:50:13;;;;;;;6.65;3.90;;;15.90;99.90;;;;;;5025200;28;20378;-50
2022/07/02 05:52:39;;;;;;;10.65;4.43;;;15.90;99.90;;;;;;5024607;28;20546;-47
2022/07/02 05:55:05;;;;;;;6.45;3.85;;;16.00;99.90;;;;;;5030129;28;20032;-47
2022/07/02 05:57:31;;;;;;;6.35;4.65;;;16.00;99.90;;;;;;5031015;28;20021;-46
2022/07/02 05:59:56;;;;;;;5.35;3.70;;;16.10;99.90;;;;;;5030673;28;20387;-48
2022/07/02 06:02:22;;;;;;;11.77;4.07;;;16.20;99.90;;;;;;5027688;28;20032;-46
2022/07/02 06:04:48;;;;;;;8.77;3.97;;;16.30;99.90;;;;;;5021434;28;20037;-50
2022/07/02 06:09:58;;;;;;;5.43;3.75;;;16.40;99.90;;;;;;5021333;28;20537;-47
2022/07/02 06:12:23;;;;;;;6.65;4.10;;;16.40;99.90;;;;;;5026679;28;20022;-47
2022/07/02 06:14:49;;;;;;;8.45;3.20;;;16.50;99.90;;;;;;5020195;28;20048;-47
2022/07/02 06:17:14;;;;;;;6.45;4.25;;;16.50;99.90;;;;;;5019189;28;20026;-46
2022/07/02 06:19:40;;;;;;;7.25;3.45;;;16.60;99.90;;;;;;5017683;28;20388;-47
2022/07/02 06:22:06;;;;;;;9.88;3.78;;;16.70;99.90;;;;;;5017852;28;20044;-46
2022/07/02 06:24:31;;;;;;;7.78;3.60;;;16.80;99.90;;;;;;5018570;28;20030;-48
2022/07/02 06:26:57;;;;;;;4.93;3.20;;;16.90;99.90;;;;;;5023994;28;20028;-46
2022/07/02 06:29:22;;;;;;;12.90;4.53;;;16.90;99.90;;;;;;5033904;28;20104;-47
2022/07/02 06:31:48;;;;;;;14.05;3.47;;;16.90;99.90;;;;;;5048550;28;20029;-47
2022/07/02 06:34:13;;;;;;;13.30;4.05;;;17.10;99.90;;;;;;5047800;28;20036;-47
2022/07/02 06:36:39;;;;;;;8.10;3.67;;;17.20;99.90;;;;;;5048424;28;20486;-46
2022/07/02 06:39:04;;;;;;;6.65;3.75;;;17.20;99.90;;;;;;5048102;28;20289;-46
2022/07/02 06:44:14;;;;;;;5.50;3.80;;;17.40;99.90;;;;;;5046487;28;20039;-47
2022/07/02 06:46:39;;;;;;;3.90;2.88;;;17.50;99.90;;;;;;5048374;28;20037;-46
2022/07/02 06:49:05;;;;;;;7.47;3.28;;;17.60;99.90;;;;;;5048313;28;20199;-46
2022/07/02 06:51:30;;;;;;;9.52;3.83;;;17.70;99.90;;;;;;5048345;28;20032;-47
2022/07/02 06:54:00;;;;;;;6.63;3.45;;;17.80;99.90;;;;;;5047967;28;20041;-46
2022/07/02 06:56:27;;;;;;;6.70;2.53;;;17.80;99.90;;;;;;5045858;28;20025;-46
2022/07/02 06:58:52;;;;;;;5.30;2.40;;;17.90;99.90;;;;;;5030852;28;20026;-48
2022/07/02 07:01:18;;;;;;;5.70;3.17;;;18.00;99.90;;;;;;5020902;28;20024;-47
2022/07/02 07:03:43;;;;;;;9.98;6.93;;;18.10;99.90;;;;;;5025135;28;20563;-46
2022/07/02 07:06:09;;;;;;;66.03;38.72;;;18.10;99.90;;;;;;5020283;28;20041;-46
2022/07/02 07:08:34;;;;;;;12.25;5.53;;;18.20;99.90;;;;;;5028559;28;20648;-48
2022/07/02 07:11:00;;;;;;;6.45;2.53;;;18.30;99.90;;;;;;5029986;28;20029;-47
2022/07/02 07:13:25;;;;;;;7.30;2.67;;;18.40;99.90;;;;;;5029228;28;20029;-46
2022/07/02 07:15:51;;;;;;;3.03;2.30;;;18.50;99.90;;;;;;5028752;28;20030;-47
2022/07/02 07:18:16;;;;;;;7.65;2.58;;;18.60;99.90;;;;;;5029094;28;20032;-46
2022/07/02 07:20:42;;;;;;;5.43;2.17;;;18.70;99.90;;;;;;5028722;28;20061;-48
2022/07/02 07:23:07;;;;;;;4.03;2.53;;;18.70;99.90;;;;;;5033554;28;20442;-47
2022/07/02 07:25:33;;;;;;;5.68;2.53;;;18.80;99.90;;;;;;5039845;28;20092;-46
2022/07/02 07:27:58;;;;;;;3.67;2.22;;;18.90;99.80;;;;;;5048379;28;20017;-49
2022/07/02 07:30:24;;;;;;;3.63;2.10;;;19.10;99.30;;;;;;5049337;28;20048;-49
2022/07/02 07:32:49;;;;;;;3.65;1.88;;;19.20;99.70;;;;;;5048637;28;20382;-47
2022/07/02 07:35:14;;;;;;;2.83;1.98;;;19.20;99.20;;;;;;5048701;28;20033;-51
2022/07/02 07:37:40;;;;;;;7.32;2.05;;;19.30;98.30;;;;;;5049613;28;20151;-49
2022/07/02 07:40:07;;;;;;;3.47;2.30;;;19.40;97.60;;;;;;5049027;28;20393;-47
2022/07/02 07:42:33;;;;;;;5.95;2.33;;;19.50;97.70;;;;;;5049126;28;20032;-48
2022/07/02 07:44:58;;;;;;;2.97;1.67;;;19.50;96.90;;;;;;5048647;28;20052;-46
2022/07/02 07:47:24;;;;;;;3.58;1.42;;;19.70;96.90;;;;;;5049300;28;20029;-47
2022/07/02 07:49:49;;;;;;;4.65;1.92;;;19.80;97.00;;;;;;5049551;28;20494;-48
2022/07/02 07:52:15;;;;;;;3.10;1.98;;;20.00;95.70;;;;;;5046091;28;20034;-47
2022/07/02 07:54:40;;;;;;;5.32;2.10;;;20.00;96.40;;;;;;5042363;28;20479;-47
2022/07/02 07:57:06;;;;;;;3.15;2.03;;;20.20;95.40;;;;;;5052707;28;20071;-49
2022/07/02 07:59:32;;;;;;;5.78;1.88;;;20.30;94.90;;;;;;5052701;28;20021;-50
2022/07/02 08:01:57;;;;;;;2.50;1.38;;;20.50;95.60;;;;;;5052514;28;20105;-49
2022/07/02 08:04:24;;;;;;;2.33;1.23;;;20.70;95.00;;;;;;5052176;28;20021;-46
2022/07/02 08:06:49;;;;;;;4.53;1.63;;;20.80;94.00;;;;;;5051752;28;20482;-47
2022/07/02 08:09:15;;;;;;;3.97;1.30;;;21.00;93.30;;;;;;5051005;28;20100;-47
2022/07/02 08:11:40;;;;;;;4.53;1.63;;;21.30;92.80;;;;;;5040997;28;20108;-47
2022/07/02 08:14:05;;;;;;;4.40;1.75;;;21.60;91.00;;;;;;5049978;28;20198;-47
2022/07/02 08:16:32;;;;;;;6.30;1.90;;;22.20;91.30;;;;;;5041353;28;20128;-48
2022/07/02 08:18:57;;;;;;;1.95;1.42;;;23.30;88.30;;;;;;5021449;28;20021;-49
2022/07/02 08:21:23;;;;;;;3.80;1.73;;;24.30;87.00;;;;;;5020911;28;20026;-49
2022/07/02 08:23:48;;;;;;;2.80;1.33;;;25.40;83.80;;;;;;5022128;28;20400;-48
2022/07/02 08:26:14;;;;;;;4.40;1.45;;;26.30;77.50;;;;;;5025464;28;20045;-47
2022/07/02 08:28:40;;;;;;;5.63;1.85;;;27.20;75.20;;;;;;5019636;28;20256;-47
2022/07/02 08:31:05;;;;;;;4.55;1.40;;;28.30;67.30;;;;;;5020041;28;20033;-47
2022/07/02 08:33:31;;;;;;;4.03;1.90;;;28.20;67.60;;;;;;5020833;28;20395;-47
2022/07/02 08:35:56;;;;;;;3.78;1.42;;;28.20;61.90;;;;;;5018652;28;20482;-49
2022/07/02 08:38:22;;;;;;;3.65;1.50;;;29.00;64.30;;;;;;5020881;28;20032;-47
2022/07/02 08:40:48;;;;;;;3.28;1.20;;;29.70;62.80;;;;;;5019058;28;20084;-48
2022/07/02 08:43:14;;;;;;;3.95;1.65;;;30.00;60.60;;;;;;5019267;28;20034;-48
2022/07/02 08:45:42;;;;;;;5.07;1.50;;;31.50;56.70;;;;;;5020190;28;20021;-48
2022/07/02 08:48:08;;;;;;;6.72;1.65;;;31.80;55.60;;;;;;5020375;28;20025;-49
2022/07/02 08:50:35;;;;;;;3.40;1.65;;;31.90;54.80;;;;;;5019348;28;20164;-50
2022/07/02 08:53:02;;;;;;;3.55;1.50;;;32.60;54.10;;;;;;5020556;28;20386;-48
2022/07/02 08:55:31;;;;;;;3.88;1.20;;;33.00;50.90;;;;;;5025136;28;20018;-50
2022/07/02 08:57:58;;;;;;;2.88;1.02;;;33.80;49.70;;;;;;5026584;28;20025;-48
2022/07/02 09:00:25;;;;;;;3.25;1.58;;;33.10;48.80;;;;;;5025671;28;20068;-50
2022/07/02 09:02:53;;;;;;;4.47;1.15;;;32.30;47.00;;;;;;5020089;28;20108;-50
2022/07/02 09:05:20;;;;;;;2.92;0.90;;;31.30;49.40;;;;;;5017952;28;20299;-48
2022/07/02 09:07:47;;;;;;;5.53;1.45;;;31.90;47.30;;;;;;5019734;28;20029;-47
2022/07/02 09:10:13;;;;;;;2.67;1.15;;;32.30;50.00;;;;;;5026022;28;20383;-46
2022/07/02 09:12:40;;;;;;;2.50;1.17;;;32.80;46.50;;;;;;5022116;28;20030;-46
2022/07/02 09:15:07;;;;;;;6.82;1.42;;;32.90;45.50;;;;;;5023557;28;20037;-47
2022/07/02 09:17:33;;;;;;;2.63;1.10;;;32.20;46.00;;;;;;5032125;28;20025;-47
2022/07/02 09:19:59;;;;;;;3.45;1.25;;;32.60;48.10;;;;;;5019485;28;20018;-46
2022/07/02 09:22:39;;;;;;;2.65;1.10;;;33.40;46.10;;;;;;5018983;28;20017;-48
2022/07/02 09:25:07;;;;;;;2.53;1.13;;;32.10;47.00;;;;;;5021328;28;20068;-47
2022/07/02 09:27:33;;;;;;;5.30;1.27;;;32.20;46.60;;;;;;5021222;28;20060;-47
2022/07/02 09:29:58;;;;;;;4.57;1.50;;;32.90;46.60;;;;;;5024108;28;20060;-47
2022/07/02 09:32:24;;;;;;;3.13;1.17;;;32.60;45.50;;;;;;5023933;28;20026;-48
2022/07/02 09:34:51;;;;;;;5.40;1.30;;;33.00;47.80;;;;;;5024072;28;20493;-49
2022/07/02 09:37:18;;;;;;;2.33;0.88;;;31.80;45.00;;;;;;5019920;28;20060;-47
2022/07/02 09:39:45;;;;;;;4.00;1.00;;;32.80;46.70;;;;;;5012735;28;20033;-48
2022/07/02 09:42:11;;;;;;;1.75;1.10;;;32.70;44.80;;;;;;5024093;28;20029;-48
2022/07/02 09:44:47;;;;;;;3.72;1.20;;;32.90;48.10;;;;;;5026013;28;20029;-48
2022/07/02 09:47:13;;;;;;;5.20;1.50;;;33.00;45.30;;;;;;5021996;28;20049;-47
2022/07/02 09:49:50;;;;;;;1.98;1.20;;;31.60;46.10;;;;;;5021491;28;20116;-46
2022/07/02 09:52:17;;;;;;;3.58;1.42;;;31.90;46.10;;;;;;5023671;28;20021;-46
2022/07/02 09:54:43;;;;;;;4.85;1.80;;;32.20;45.80;;;;;;5020198;28;20026;-47
2022/07/02 09:57:10;;;;;;;4.82;1.50;;;31.60;44.40;;;;;;5019401;28;20071;-46
2022/07/02 09:59:37;;;;;;;4.20;1.70;;;30.00;46.40;;;;;;5020792;28;20079;-46
2022/07/02 10:02:03;;;;;;;2.92;1.55;;;30.20;48.30;;;;;;5020690;28;20026;-47
2022/07/02 10:04:33;;;;;;;3.13;1.48;;;29.90;49.40;;;;;;5018595;28;20021;-47
2022/07/02 10:07:00;;;;;;;3.53;1.38;;;30.70;48.00;;;;;;5023043;28;20034;-46
2022/07/02 10:09:26;;;;;;;6.90;1.50;;;30.10;48.50;;;;;;5020865;28;20584;-45
2022/07/02 10:11:53;;;;;;;4.55;1.67;;;29.50;49.30;;;;;;5025397;28;20413;-46
2022/07/02 10:14:20;;;;;;;2.90;1.60;;;30.10;49.50;;;;;;5030948;28;20144;-45
2022/07/02 10:16:47;;;;;;;5.40;1.95;;;30.70;48.20;;;;;;5024130;28;20030;-45
2022/07/02 10:19:14;;;;;;;2.10;1.20;;;31.00;47.40;;;;;;5032428;28;20386;-46
2022/07/02 10:21:40;;;;;;;2.90;1.40;;;32.40;48.20;;;;;;5018310;28;20084;-45
2022/07/02 10:24:10;;;;;;;5.47;1.45;;;33.40;46.20;;;;;;5018812;28;20045;-47
2022/07/02 10:26:37;;;;;;;2.35;1.30;;;34.50;43.50;;;;;;5019354;28;20097;-47
2022/07/02 10:29:03;;;;;;;3.88;1.13;;;35.40;44.80;;;;;;5021649;28;20100;-47
2022/07/02 10:31:36;;;;;;;5.07;1.60;;;35.60;43.50;;;;;;5021869;28;20100;-49
2022/07/02 10:34:42;;;;;;;6.63;1.90;;;36.50;40.30;;;;;;5024627;28;20026;-50
2022/07/02 10:37:08;;;;;;;4.80;1.77;;;34.20;41.60;;;;;;5014697;28;20188;-50
2022/07/02 10:39:41;;;;;;;3.92;1.67;;;33.70;43.20;;;;;;5015570;28;20590;-46
2022/07/02 10:42:07;;;;;;;5.35;1.70;;;33.10;44.50;;;;;;5024835;28;20021;-47
2022/07/02 10:44:41;;;;;;;3.85;1.20;;;32.00;44.30;;;;;;5022878;28;20029;-46
2022/07/02 10:47:26;;;;;;;5.50;1.60;;;32.40;44.50;;;;;;5024817;28;20031;-46
2022/07/02 10:49:59;;;;;;;3.03;1.77;;;31.00;46.00;;;;;;5025166;28;20033;-47
2022/07/02 10:52:48;;;;;;;3.50;1.40;;;30.70;47.40;;;;;;5025489;28;20025;-47
2022/07/02 10:55:27;;;;;;;4.40;1.55;;;30.70;47.40;;;;;;5023405;28;20055;-46
2022/07/02 10:58:01;;;;;;;5.28;1.58;;;30.20;47.90;;;;;;5012857;28;20032;-47
2022/07/02 11:00:31;;;;;;;4.88;1.10;;;30.50;47.60;;;;;;5022516;28;20033;-45
2022/07/02 11:02:57;;;;;;;;;;;31.30;47.40;;;;;;5022376;28;20459;-47
2022/07/02 11:05:23;;;;;;;2.47;1.15;;;32.60;46.30;;;;;;5023026;28;19917;-46
2022/07/02 11:07:48;;;;;;;5.57;1.30;;;33.80;44.40;;;;;;5023976;28;20032;-46
2022/07/02 11:10:14;;;;;;;4.25;1.65;;;32.90;43.30;;;;;;5020468;28;20033;-46
2022/07/02 11:12:46;;;;;;;4.07;1.50;;;31.40;45.60;;;;;;5027529;28;20394;-47
2022/07/02 11:15:21;;;;;;;4.15;1.33;;;32.10;45.00;;;;;;5027251;28;20387;-48
2022/07/02 11:17:50;;;;;;;1.08;1.00;;;33.00;45.80;;;;;;5028197;28;20037;-45
2022/07/02 11:20:25;;;;;;;4.38;1.23;;;34.60;43.30;;;;;;5035307;28;20624;-47
2022/07/02 11:22:52;;;;;;;3.63;1.20;;;35.60;41.80;;;;;;5046330;28;20033;-48
2022/07/02 11:25:17;;;;;;;2.78;1.02;;;35.20;43.80;;;;;;5037634;28;20065;-47
2022/07/02 11:27:53;;;;;;;3.22;1.10;;;33.90;43.20;;;;;;5051746;28;20057;-45
2022/07/02 11:30:27;;;;;;;4.82;1.30;;;31.90;44.10;;;;;;5042818;28;20017;-46
2022/07/02 11:32:52;;;;;;;1.15;0.82;;;31.60;45.50;;;;;;5053083;28;20032;-47
2022/07/02 11:35:18;;;;;;;3.60;1.02;;;32.70;45.20;;;;;;5052592;28;20024;-48
2022/07/02 11:37:44;;;;;;;2.75;1.23;;;33.80;45.10;;;;;;5053213;28;20047;-47
2022/07/02 11:40:23;;;;;;;1.83;0.80;;;34.60;44.90;;;;;;5053181;28;20104;-49
2022/07/02 11:42:49;;;;;;;2.40;1.02;;;35.30;44.40;;;;;;5052951;28;20451;-46
2022/07/02 11:45:15;;;;;;;1.55;0.90;;;34.20;43.70;;;;;;5051681;28;20033;-47
2022/07/02 11:47:49;;;;;;;3.15;0.90;;;34.00;43.40;;;;;;5051727;28;20025;-47
2022/07/02 11:50:25;;;;;;;3.47;1.00;;;35.10;42.70;;;;;;5052715;28;20029;-46
2022/07/02 11:52:51;;;;;;;1.92;1.05;;;35.80;41.30;;;;;;5052829;28;20060;-46
2022/07/02 11:55:16;;;;;;;2.03;0.77;;;36.50;40.10;;;;;;5046291;28;20112;-46
2022/07/02 11:57:44;;;;;;;1.63;0.70;;;35.50;40.90;;;;;;5042800;28;20026;-46
2022/07/02 12:00:10;;;;;;;1.77;1.08;;;35.30;43.60;;;;;;5052891;28;20025;-49
2022/07/02 12:02:36;;;;;;;3.38;1.23;;;35.40;42.10;;;;;;5038484;28;20029;-46
2022/07/02 12:05:19;;;;;;;3.72;1.10;;;33.10;41.10;;;;;;5023012;28;20036;-45
2022/07/02 12:07:45;;;;;;;2.13;0.80;;;33.10;43.30;;;;;;5023729;28;20041;-46
2022/07/02 12:10:12;;;;;;;3.53;1.00;;;32.30;43.40;;;;;;5031441;28;20032;-46
2022/07/02 12:12:38;;;;;;;6.18;1.08;;;32.30;45.10;;;;;;5032593;28;20022;-46
2022/07/02 12:15:05;;;;;;;1.73;0.93;;;31.90;44.40;;;;;;5036185;28;20466;-47
2022/07/02 12:17:31;;;;;;;4.00;0.93;;;31.70;48.10;;;;;;5044165;28;20661;-46
2022/07/02 12:19:57;;;;;;;3.15;1.23;;;31.80;47.50;;;;;;5052594;28;20033;-47
2022/07/02 12:22:33;;;;;;;2.83;1.38;;;31.00;46.00;;;;;;5052303;28;20348;-45
2022/07/02 12:24:58;;;;;;;5.38;1.13;;;31.10;45.70;;;;;;5027040;28;20032;-46
2022/07/02 12:27:24;;;;;;;3.78;1.17;;;31.30;47.30;;;;;;5032136;28;20021;-45
2022/07/02 12:29:53;;;;;;;0.88;0.77;;;31.80;47.00;;;;;;5031736;28;20029;-46
2022/07/02 12:32:27;;;;;;;4.10;1.20;;;31.90;45.40;;;;;;5030063;28;20025;-47
2022/07/02 12:34:57;;;;;;;2.50;1.00;;;32.00;46.30;;;;;;5024564;28;20029;-46
2022/07/02 12:37:31;;;;;;;1.65;1.02;;;32.00;46.70;;;;;;5027131;28;20013;-51
2022/07/02 12:40:00;;;;;;;3.30;1.20;;;31.30;45.20;;;;;;5022930;28;20026;-45
2022/07/02 12:42:26;;;;;;;1.95;1.30;;;30.90;45.50;;;;;;5023048;28;20049;-45
2022/07/02 12:45:00;;;;;;;2.03;1.00;;;29.90;47.10;;;;;;5019165;28;20079;-46
2022/07/02 12:47:37;;;;;;;3.35;1.15;;;29.80;47.00;;;;;;5020909;28;20025;-48